Fort Smith Regional Airport Fort Smith US
ICAO: KFSM
IATA: FSM
Category: Large
Scheduled Services: Yes

Elevation: 469 ft
TransAlt. 18000 ft.

Airport Communications:
RAZORBACK APP:35.357
RAZORBACK APP:120.175
ATIS:126.3
CLNC DEL:133.85
CTAF:118.3
RAZORBACK DEP:120.9
GND:121.9
JONESBORO RDO:122.2
TWR:118.3
UNICOM:122.95

KFSM Zoom In..

Runways:

(A) RW 01 length 5001 ft width 150 ft
---- / hdg 16

(B) RW 07 length 8017 ft width 150 ft
ILS 111.30 / hdg 76

(C) RW 19 length 5001 ft width 150 ft
---- / hdg 196

(D) RW 25 length 8017 ft width 150 ft
ILS 111.30 / hdg 256

Location; KFSM
Day. 22 / Time. 00.34 Zulu
* Altimeter: 30.02
* Temperature: 14° c. 57.2°f.
* Wind from: 350° Speed 05 kn.
Dewpoint: 13° c.
Visibility: 3 Statute Miles.
Clouds: Broken 3700 ft.
Clouds: Overcast 4400 ft.
Conditions: Light Rain.Conditions: Mist.

KFSM 220034Z 35005KT 3SM -RA BR BKN037 OVC044 14/13 A3002 RMK AO2 P0005 T01390133


Wind From 350°
Speed 05 kn.

  YouTube Music Video
 
jpsmedia.com for Web Design  worldairports.se 2018   terms of use